sensor_id;sensor_type;location;lat;lon;timestamp;P1;durP1;ratioP1;P2;durP2;ratioP2
22525;SDS011;11429;50.842;4.386;2023-04-30T00:02:21;19.63;;;14.63;;
22525;SDS011;11429;50.842;4.386;2023-04-30T00:04:46;18.58;;;14.35;;
22525;SDS011;11429;50.842;4.386;2023-04-30T00:07:12;19.40;;;13.40;;
22525;SDS011;11429;50.842;4.386;2023-04-30T00:09:38;16.85;;;13.15;;
22525;SDS011;11429;50.842;4.386;2023-04-30T00:12:04;18.30;;;12.57;;
22525;SDS011;11429;50.842;4.386;2023-04-30T00:14:30;19.17;;;13.65;;
22525;SDS011;11429;50.842;4.386;2023-04-30T00:16:55;22.00;;;13.93;;
22525;SDS011;11429;50.842;4.386;2023-04-30T00:19:21;18.92;;;12.77;;
22525;SDS011;11429;50.842;4.386;2023-04-30T00:21:47;15.82;;;12.02;;
22525;SDS011;11429;50.842;4.386;2023-04-30T00:24:13;15.70;;;12.45;;
22525;SDS011;11429;50.842;4.386;2023-04-30T00:26:38;20.13;;;11.77;;
22525;SDS011;11429;50.842;4.386;2023-04-30T00:29:04;17.33;;;12.23;;
22525;SDS011;11429;50.842;4.386;2023-04-30T00:31:30;14.43;;;10.63;;
22525;SDS011;11429;50.842;4.386;2023-04-30T00:33:56;11.73;;;9.57;;
22525;SDS011;11429;50.842;4.386;2023-04-30T00:36:22;13.25;;;9.73;;
22525;SDS011;11429;50.842;4.386;2023-04-30T00:38:47;14.02;;;9.80;;
22525;SDS011;11429;50.842;4.386;2023-04-30T00:41:13;14.77;;;9.75;;
22525;SDS011;11429;50.842;4.386;2023-04-30T00:43:40;12.57;;;9.40;;
22525;SDS011;11429;50.842;4.386;2023-04-30T00:46:06;14.90;;;8.70;;
22525;SDS011;11429;50.842;4.386;2023-04-30T00:48:32;13.45;;;9.27;;
22525;SDS011;11429;50.842;4.386;2023-04-30T00:50:58;12.40;;;8.93;;
22525;SDS011;11429;50.842;4.386;2023-04-30T00:53:25;12.27;;;9.68;;
22525;SDS011;11429;50.842;4.386;2023-04-30T00:55:51;14.00;;;8.63;;
22525;SDS011;11429;50.842;4.386;2023-04-30T00:58:18;12.15;;;8.98;;
22525;SDS011;11429;50.842;4.386;2023-04-30T01:00:44;10.90;;;8.93;;
22525;SDS011;11429;50.842;4.386;2023-04-30T01:03:11;13.98;;;9.07;;
22525;SDS011;11429;50.842;4.386;2023-04-30T01:05:38;13.18;;;9.15;;
22525;SDS011;11429;50.842;4.386;2023-04-30T01:08:03;14.23;;;8.80;;
22525;SDS011;11429;50.842;4.386;2023-04-30T01:10:31;13.10;;;8.27;;
22525;SDS011;11429;50.842;4.386;2023-04-30T01:13:09;13.70;;;8.50;;
22525;SDS011;11429;50.842;4.386;2023-04-30T01:15:45;13.48;;;8.50;;
22525;SDS011;11429;50.842;4.386;2023-04-30T01:20:53;14.30;;;8.43;;
22525;SDS011;11429;50.842;4.386;2023-04-30T01:29:42;14.18;;;8.77;;
22525;SDS011;11429;50.842;4.386;2023-04-30T01:32:11;12.25;;;9.10;;
22525;SDS011;11429;50.842;4.386;2023-04-30T01:34:37;10.75;;;8.38;;
22525;SDS011;11429;50.842;4.386;2023-04-30T01:37:20;13.45;;;8.43;;
22525;SDS011;11429;50.842;4.386;2023-04-30T01:42:41;11.18;;;8.60;;
22525;SDS011;11429;50.842;4.386;2023-04-30T01:45:21;12.88;;;8.80;;
22525;SDS011;11429;50.842;4.386;2023-04-30T01:47:51;13.50;;;8.27;;
22525;SDS011;11429;50.842;4.386;2023-04-30T01:50:32;14.23;;;8.25;;
22525;SDS011;11429;50.842;4.386;2023-04-30T01:53:08;13.02;;;8.23;;
22525;SDS011;11429;50.842;4.386;2023-04-30T01:55:43;11.05;;;8.60;;
22525;SDS011;11429;50.842;4.386;2023-04-30T01:58:15;15.98;;;9.05;;
22525;SDS011;11429;50.842;4.386;2023-04-30T02:00:42;12.13;;;8.70;;
22525;SDS011;11429;50.842;4.386;2023-04-30T02:03:08;13.13;;;8.63;;
22525;SDS011;11429;50.842;4.386;2023-04-30T02:05:34;12.02;;;8.98;;
22525;SDS011;11429;50.842;4.386;2023-04-30T02:07:59;12.55;;;9.35;;
22525;SDS011;11429;50.842;4.386;2023-04-30T02:10:25;11.43;;;8.90;;
22525;SDS011;11429;50.842;4.386;2023-04-30T02:12:51;12.27;;;9.40;;
22525;SDS011;11429;50.842;4.386;2023-04-30T02:15:17;11.35;;;8.85;;
22525;SDS011;11429;50.842;4.386;2023-04-30T02:17:43;13.15;;;9.27;;
22525;SDS011;11429;50.842;4.386;2023-04-30T02:20:09;15.98;;;10.07;;
22525;SDS011;11429;50.842;4.386;2023-04-30T02:22:35;12.40;;;9.07;;
22525;SDS011;11429;50.842;4.386;2023-04-30T02:25:01;15.30;;;9.20;;
22525;SDS011;11429;50.842;4.386;2023-04-30T02:27:29;13.68;;;8.70;;
22525;SDS011;11429;50.842;4.386;2023-04-30T02:29:56;11.32;;;9.18;;
22525;SDS011;11429;50.842;4.386;2023-04-30T02:32:22;11.13;;;8.27;;
22525;SDS011;11429;50.842;4.386;2023-04-30T02:34:48;11.10;;;9.00;;
22525;SDS011;11429;50.842;4.386;2023-04-30T02:37:14;11.85;;;8.85;;
22525;SDS011;11429;50.842;4.386;2023-04-30T02:39:40;10.57;;;8.05;;
22525;SDS011;11429;50.842;4.386;2023-04-30T02:42:07;11.68;;;8.50;;
22525;SDS011;11429;50.842;4.386;2023-04-30T02:44:32;13.90;;;8.48;;
22525;SDS011;11429;50.842;4.386;2023-04-30T02:46:59;13.43;;;8.05;;
22525;SDS011;11429;50.842;4.386;2023-04-30T02:49:25;12.48;;;8.60;;
22525;SDS011;11429;50.842;4.386;2023-04-30T02:51:51;10.73;;;8.20;;
22525;SDS011;11429;50.842;4.386;2023-04-30T02:54:17;12.02;;;7.88;;
22525;SDS011;11429;50.842;4.386;2023-04-30T02:56:43;11.30;;;8.05;;
22525;SDS011;11429;50.842;4.386;2023-04-30T02:59:09;9.23;;;7.93;;
22525;SDS011;11429;50.842;4.386;2023-04-30T03:01:35;13.18;;;8.27;;
22525;SDS011;11429;50.842;4.386;2023-04-30T03:04:01;12.50;;;8.63;;
22525;SDS011;11429;50.842;4.386;2023-04-30T03:06:30;14.15;;;9.27;;
22525;SDS011;11429;50.842;4.386;2023-04-30T03:08:56;11.63;;;8.43;;
22525;SDS011;11429;50.842;4.386;2023-04-30T03:11:21;10.98;;;8.73;;
22525;SDS011;11429;50.842;4.386;2023-04-30T03:13:47;12.70;;;8.20;;
22525;SDS011;11429;50.842;4.386;2023-04-30T03:16:17;11.93;;;9.52;;
22525;SDS011;11429;50.842;4.386;2023-04-30T03:18:44;10.52;;;8.30;;
22525;SDS011;11429;50.842;4.386;2023-04-30T03:21:11;11.38;;;8.60;;
22525;SDS011;11429;50.842;4.386;2023-04-30T03:23:36;11.85;;;8.98;;
22525;SDS011;11429;50.842;4.386;2023-04-30T03:26:02;11.63;;;9.18;;
22525;SDS011;11429;50.842;4.386;2023-04-30T03:28:28;13.52;;;8.85;;
22525;SDS011;11429;50.842;4.386;2023-04-30T03:30:53;12.52;;;8.70;;
22525;SDS011;11429;50.842;4.386;2023-04-30T03:33:19;12.15;;;9.23;;
22525;SDS011;11429;50.842;4.386;2023-04-30T03:35:45;14.75;;;9.13;;
22525;SDS011;11429;50.842;4.386;2023-04-30T03:38:11;12.80;;;8.95;;
22525;SDS011;11429;50.842;4.386;2023-04-30T03:40:36;12.50;;;8.93;;
22525;SDS011;11429;50.842;4.386;2023-04-30T03:43:02;11.43;;;8.90;;
22525;SDS011;11429;50.842;4.386;2023-04-30T03:45:28;14.20;;;9.10;;
22525;SDS011;11429;50.842;4.386;2023-04-30T03:47:53;14.35;;;10.65;;
22525;SDS011;11429;50.842;4.386;2023-04-30T03:50:19;17.00;;;11.25;;
22525;SDS011;11429;50.842;4.386;2023-04-30T03:52:45;12.27;;;9.32;;
22525;SDS011;11429;50.842;4.386;2023-04-30T03:55:11;12.75;;;9.88;;
22525;SDS011;11429;50.842;4.386;2023-04-30T03:57:37;12.18;;;9.50;;
22525;SDS011;11429;50.842;4.386;2023-04-30T04:00:05;13.68;;;8.95;;
22525;SDS011;11429;50.842;4.386;2023-04-30T04:02:36;13.65;;;9.60;;
22525;SDS011;11429;50.842;4.386;2023-04-30T04:05:02;17.00;;;9.95;;
22525;SDS011;11429;50.842;4.386;2023-04-30T04:07:28;16.10;;;9.77;;
22525;SDS011;11429;50.842;4.386;2023-04-30T04:09:54;14.10;;;9.48;;
22525;SDS011;11429;50.842;4.386;2023-04-30T04:12:20;14.27;;;9.70;;
22525;SDS011;11429;50.842;4.386;2023-04-30T04:14:46;13.07;;;9.77;;
22525;SDS011;11429;50.842;4.386;2023-04-30T04:17:12;14.30;;;10.05;;
22525;SDS011;11429;50.842;4.386;2023-04-30T04:19:38;14.00;;;9.95;;
22525;SDS011;11429;50.842;4.386;2023-04-30T04:22:04;16.40;;;9.90;;
22525;SDS011;11429;50.842;4.386;2023-04-30T04:24:30;15.93;;;10.32;;
22525;SDS011;11429;50.842;4.386;2023-04-30T04:26:56;14.23;;;10.27;;
22525;SDS011;11429;50.842;4.386;2023-04-30T04:29:22;17.45;;;11.27;;
22525;SDS011;11429;50.842;4.386;2023-04-30T04:31:47;16.33;;;10.57;;
22525;SDS011;11429;50.842;4.386;2023-04-30T04:34:15;16.92;;;10.20;;
22525;SDS011;11429;50.842;4.386;2023-04-30T04:36:41;12.88;;;9.90;;
22525;SDS011;11429;50.842;4.386;2023-04-30T04:39:07;16.35;;;10.02;;
22525;SDS011;11429;50.842;4.386;2023-04-30T04:41:33;12.57;;;9.88;;
22525;SDS011;11429;50.842;4.386;2023-04-30T04:44:01;19.10;;;10.57;;
22525;SDS011;11429;50.842;4.386;2023-04-30T04:46:27;15.57;;;11.77;;
22525;SDS011;11429;50.842;4.386;2023-04-30T04:48:54;16.48;;;11.68;;
22525;SDS011;11429;50.842;4.386;2023-04-30T04:51:20;19.17;;;11.32;;
22525;SDS011;11429;50.842;4.386;2023-04-30T04:53:45;16.08;;;10.45;;
22525;SDS011;11429;50.842;4.386;2023-04-30T04:56:11;15.02;;;10.85;;
22525;SDS011;11429;50.842;4.386;2023-04-30T04:58:38;17.08;;;11.38;;
22525;SDS011;11429;50.842;4.386;2023-04-30T05:01:04;17.73;;;11.18;;
22525;SDS011;11429;50.842;4.386;2023-04-30T05:03:33;15.80;;;12.23;;
22525;SDS011;11429;50.842;4.386;2023-04-30T05:06:01;17.38;;;11.55;;
22525;SDS011;11429;50.842;4.386;2023-04-30T05:08:30;17.17;;;10.77;;
22525;SDS011;11429;50.842;4.386;2023-04-30T05:10:56;16.20;;;11.50;;
22525;SDS011;11429;50.842;4.386;2023-04-30T05:13:21;16.70;;;10.85;;
22525;SDS011;11429;50.842;4.386;2023-04-30T05:15:50;15.48;;;10.63;;
22525;SDS011;11429;50.842;4.386;2023-04-30T05:18:17;17.65;;;11.65;;
22525;SDS011;11429;50.842;4.386;2023-04-30T05:20:42;14.00;;;10.82;;
22525;SDS011;11429;50.842;4.386;2023-04-30T05:23:08;17.30;;;11.63;;
22525;SDS011;11429;50.842;4.386;2023-04-30T05:25:34;16.83;;;12.00;;
22525;SDS011;11429;50.842;4.386;2023-04-30T05:28:00;15.85;;;11.60;;
22525;SDS011;11429;50.842;4.386;2023-04-30T05:30:27;18.70;;;11.50;;
22525;SDS011;11429;50.842;4.386;2023-04-30T05:32:53;21.45;;;12.60;;
22525;SDS011;11429;50.842;4.386;2023-04-30T05:35:20;20.65;;;12.75;;
22525;SDS011;11429;50.842;4.386;2023-04-30T05:37:46;17.98;;;12.73;;
22525;SDS011;11429;50.842;4.386;2023-04-30T05:40:12;17.13;;;11.93;;
22525;SDS011;11429;50.842;4.386;2023-04-30T05:42:39;14.45;;;11.93;;
22525;SDS011;11429;50.842;4.386;2023-04-30T05:45:05;18.48;;;12.35;;
22525;SDS011;11429;50.842;4.386;2023-04-30T05:47:32;19.20;;;12.85;;
22525;SDS011;11429;50.842;4.386;2023-04-30T05:49:57;16.65;;;12.70;;
22525;SDS011;11429;50.842;4.386;2023-04-30T05:52:23;14.80;;;12.07;;
22525;SDS011;11429;50.842;4.386;2023-04-30T05:54:49;18.15;;;12.38;;
22525;SDS011;11429;50.842;4.386;2023-04-30T05:57:15;17.60;;;12.30;;
22525;SDS011;11429;50.842;4.386;2023-04-30T05:59:41;17.30;;;12.98;;
22525;SDS011;11429;50.842;4.386;2023-04-30T06:02:06;15.40;;;13.02;;
22525;SDS011;11429;50.842;4.386;2023-04-30T06:04:33;17.23;;;12.90;;
22525;SDS011;11429;50.842;4.386;2023-04-30T06:06:59;16.33;;;11.68;;
22525;SDS011;11429;50.842;4.386;2023-04-30T06:09:25;18.33;;;13.20;;
22525;SDS011;11429;50.842;4.386;2023-04-30T06:11:50;15.63;;;12.55;;
22525;SDS011;11429;50.842;4.386;2023-04-30T06:14:17;15.77;;;12.27;;
22525;SDS011;11429;50.842;4.386;2023-04-30T06:16:44;16.73;;;12.40;;
22525;SDS011;11429;50.842;4.386;2023-04-30T06:19:10;17.58;;;13.25;;
22525;SDS011;11429;50.842;4.386;2023-04-30T06:21:36;19.13;;;13.65;;
22525;SDS011;11429;50.842;4.386;2023-04-30T06:24:02;17.05;;;13.60;;
22525;SDS011;11429;50.842;4.386;2023-04-30T06:26:28;16.35;;;13.07;;
22525;SDS011;11429;50.842;4.386;2023-04-30T06:28:54;15.43;;;12.80;;
22525;SDS011;11429;50.842;4.386;2023-04-30T06:31:20;15.75;;;12.95;;
22525;SDS011;11429;50.842;4.386;2023-04-30T06:33:47;15.43;;;12.73;;
22525;SDS011;11429;50.842;4.386;2023-04-30T06:36:12;17.67;;;14.43;;
22525;SDS011;11429;50.842;4.386;2023-04-30T06:38:39;18.70;;;14.50;;
22525;SDS011;11429;50.842;4.386;2023-04-30T06:41:05;15.32;;;13.73;;
22525;SDS011;11429;50.842;4.386;2023-04-30T06:43:31;16.98;;;13.95;;
22525;SDS011;11429;50.842;4.386;2023-04-30T06:45:56;21.20;;;15.73;;
22525;SDS011;11429;50.842;4.386;2023-04-30T06:48:22;20.58;;;15.30;;
22525;SDS011;11429;50.842;4.386;2023-04-30T06:50:48;17.88;;;14.60;;
22525;SDS011;11429;50.842;4.386;2023-04-30T06:53:14;16.10;;;14.05;;
22525;SDS011;11429;50.842;4.386;2023-04-30T06:55:40;19.48;;;15.82;;
22525;SDS011;11429;50.842;4.386;2023-04-30T06:58:06;17.00;;;15.13;;
22525;SDS011;11429;50.842;4.386;2023-04-30T07:00:32;18.67;;;15.60;;
22525;SDS011;11429;50.842;4.386;2023-04-30T07:02:59;18.20;;;15.35;;
22525;SDS011;11429;50.842;4.386;2023-04-30T07:05:26;17.77;;;15.38;;
22525;SDS011;11429;50.842;4.386;2023-04-30T07:07:53;18.35;;;16.27;;
22525;SDS011;11429;50.842;4.386;2023-04-30T07:10:18;17.33;;;15.25;;
22525;SDS011;11429;50.842;4.386;2023-04-30T07:12:44;18.98;;;15.98;;
22525;SDS011;11429;50.842;4.386;2023-04-30T07:15:10;19.58;;;17.15;;
22525;SDS011;11429;50.842;4.386;2023-04-30T07:17:36;18.30;;;16.30;;
22525;SDS011;11429;50.842;4.386;2023-04-30T07:20:05;18.63;;;16.63;;
22525;SDS011;11429;50.842;4.386;2023-04-30T07:22:32;21.77;;;18.05;;
22525;SDS011;11429;50.842;4.386;2023-04-30T07:24:57;22.90;;;18.85;;
22525;SDS011;11429;50.842;4.386;2023-04-30T07:27:24;23.80;;;18.42;;
22525;SDS011;11429;50.842;4.386;2023-04-30T07:29:50;21.55;;;17.92;;
22525;SDS011;11429;50.842;4.386;2023-04-30T07:32:16;21.23;;;18.25;;
22525;SDS011;11429;50.842;4.386;2023-04-30T07:34:42;21.33;;;19.13;;
22525;SDS011;11429;50.842;4.386;2023-04-30T07:37:08;22.15;;;18.05;;
22525;SDS011;11429;50.842;4.386;2023-04-30T07:39:34;20.23;;;18.02;;
22525;SDS011;11429;50.842;4.386;2023-04-30T07:42:03;26.30;;;19.98;;
22525;SDS011;11429;50.842;4.386;2023-04-30T07:44:29;21.20;;;18.20;;
22525;SDS011;11429;50.842;4.386;2023-04-30T07:46:55;20.98;;;18.83;;
22525;SDS011;11429;50.842;4.386;2023-04-30T07:49:21;22.30;;;19.90;;
22525;SDS011;11429;50.842;4.386;2023-04-30T07:51:47;20.08;;;17.98;;
22525;SDS011;11429;50.842;4.386;2023-04-30T07:54:13;22.23;;;18.85;;
22525;SDS011;11429;50.842;4.386;2023-04-30T07:56:39;23.10;;;18.83;;
22525;SDS011;11429;50.842;4.386;2023-04-30T07:59:07;22.35;;;18.67;;
22525;SDS011;11429;50.842;4.386;2023-04-30T08:01:32;22.38;;;18.48;;
22525;SDS011;11429;50.842;4.386;2023-04-30T08:03:58;21.63;;;19.27;;
22525;SDS011;11429;50.842;4.386;2023-04-30T08:06:24;23.38;;;19.60;;
22525;SDS011;11429;50.842;4.386;2023-04-30T08:08:51;26.50;;;19.83;;
22525;SDS011;11429;50.842;4.386;2023-04-30T08:11:17;22.33;;;17.67;;
22525;SDS011;11429;50.842;4.386;2023-04-30T08:13:43;23.13;;;19.80;;
22525;SDS011;11429;50.842;4.386;2023-04-30T08:16:09;23.23;;;18.58;;
22525;SDS011;11429;50.842;4.386;2023-04-30T08:18:35;21.50;;;19.13;;
22525;SDS011;11429;50.842;4.386;2023-04-30T08:21:08;22.27;;;18.83;;
22525;SDS011;11429;50.842;4.386;2023-04-30T08:23:34;24.08;;;18.75;;
22525;SDS011;11429;50.842;4.386;2023-04-30T08:26:00;21.92;;;18.85;;
22525;SDS011;11429;50.842;4.386;2023-04-30T08:28:25;20.40;;;16.90;;
22525;SDS011;11429;50.842;4.386;2023-04-30T08:30:51;23.92;;;18.20;;
22525;SDS011;11429;50.842;4.386;2023-04-30T08:33:17;21.38;;;17.25;;
22525;SDS011;11429;50.842;4.386;2023-04-30T08:35:42;18.35;;;15.80;;
22525;SDS011;11429;50.842;4.386;2023-04-30T08:38:08;22.65;;;16.30;;
22525;SDS011;11429;50.842;4.386;2023-04-30T08:40:34;21.08;;;16.42;;
22525;SDS011;11429;50.842;4.386;2023-04-30T08:43:04;20.45;;;16.70;;
22525;SDS011;11429;50.842;4.386;2023-04-30T08:45:31;20.80;;;15.80;;
22525;SDS011;11429;50.842;4.386;2023-04-30T08:47:58;19.92;;;15.85;;
22525;SDS011;11429;50.842;4.386;2023-04-30T08:50:25;19.77;;;16.25;;
22525;SDS011;11429;50.842;4.386;2023-04-30T08:52:52;19.30;;;15.98;;
22525;SDS011;11429;50.842;4.386;2023-04-30T08:55:18;16.17;;;13.02;;
22525;SDS011;11429;50.842;4.386;2023-04-30T08:57:43;16.48;;;14.02;;
22525;SDS011;11429;50.842;4.386;2023-04-30T09:00:09;19.02;;;13.45;;
22525;SDS011;11429;50.842;4.386;2023-04-30T09:02:39;17.58;;;13.55;;
22525;SDS011;11429;50.842;4.386;2023-04-30T09:05:07;17.00;;;14.40;;
22525;SDS011;11429;50.842;4.386;2023-04-30T09:07:35;13.15;;;11.35;;
22525;SDS011;11429;50.842;4.386;2023-04-30T09:10:28;15.23;;;11.63;;
22525;SDS011;11429;50.842;4.386;2023-04-30T09:13:08;16.10;;;12.18;;
22525;SDS011;11429;50.842;4.386;2023-04-30T09:15:35;13.65;;;11.52;;
22525;SDS011;11429;50.842;4.386;2023-04-30T09:18:12;14.50;;;11.20;;
22525;SDS011;11429;50.842;4.386;2023-04-30T09:23:22;11.75;;;10.05;;
22525;SDS011;11429;50.842;4.386;2023-04-30T09:25:48;12.40;;;9.73;;
22525;SDS011;11429;50.842;4.386;2023-04-30T09:28:14;15.20;;;11.75;;
22525;SDS011;11429;50.842;4.386;2023-04-30T09:30:40;12.63;;;10.40;;
22525;SDS011;11429;50.842;4.386;2023-04-30T09:33:06;13.30;;;11.30;;
22525;SDS011;11429;50.842;4.386;2023-04-30T09:35:33;13.38;;;10.82;;
22525;SDS011;11429;50.842;4.386;2023-04-30T09:38:24;12.38;;;10.18;;
22525;SDS011;11429;50.842;4.386;2023-04-30T09:40:50;14.25;;;10.68;;
22525;SDS011;11429;50.842;4.386;2023-04-30T09:43:16;12.80;;;11.18;;
22525;SDS011;11429;50.842;4.386;2023-04-30T09:45:45;12.98;;;9.88;;
22525;SDS011;11429;50.842;4.386;2023-04-30T09:48:20;13.55;;;10.93;;
22525;SDS011;11429;50.842;4.386;2023-04-30T09:50:47;12.13;;;10.93;;
22525;SDS011;11429;50.842;4.386;2023-04-30T09:53:13;11.93;;;9.88;;
22525;SDS011;11429;50.842;4.386;2023-04-30T09:55:42;10.45;;;9.00;;
22525;SDS011;11429;50.842;4.386;2023-04-30T09:58:10;9.73;;;8.00;;
22525;SDS011;11429;50.842;4.386;2023-04-30T10:00:37;9.82;;;8.10;;
22525;SDS011;11429;50.842;4.386;2023-04-30T10:03:07;11.55;;;8.68;;
22525;SDS011;11429;50.842;4.386;2023-04-30T10:05:41;11.07;;;9.98;;
22525;SDS011;11429;50.842;4.386;2023-04-30T10:08:18;11.52;;;9.57;;
22525;SDS011;11429;50.842;4.386;2023-04-30T10:10:52;11.25;;;9.25;;
22525;SDS011;11429;50.842;4.386;2023-04-30T10:13:28;10.57;;;9.02;;
22525;SDS011;11429;50.842;4.386;2023-04-30T10:16:08;8.02;;;7.20;;
22525;SDS011;11429;50.842;4.386;2023-04-30T10:18:42;9.63;;;7.72;;
22525;SDS011;11429;50.842;4.386;2023-04-30T10:21:14;10.07;;;8.40;;
22525;SDS011;11429;50.842;4.386;2023-04-30T10:23:45;9.85;;;8.23;;
22525;SDS011;11429;50.842;4.386;2023-04-30T10:26:12;9.32;;;8.30;;
22525;SDS011;11429;50.842;4.386;2023-04-30T10:28:41;10.68;;;9.00;;
22525;SDS011;11429;50.842;4.386;2023-04-30T10:31:07;9.38;;;7.57;;
22525;SDS011;11429;50.842;4.386;2023-04-30T10:36:39;9.75;;;7.53;;
22525;SDS011;11429;50.842;4.386;2023-04-30T10:39:10;10.48;;;8.23;;
22525;SDS011;11429;50.842;4.386;2023-04-30T10:41:37;7.35;;;6.18;;
22525;SDS011;11429;50.842;4.386;2023-04-30T10:44:03;8.18;;;7.22;;
22525;SDS011;11429;50.842;4.386;2023-04-30T10:46:33;10.55;;;7.88;;
22525;SDS011;11429;50.842;4.386;2023-04-30T10:49:00;9.95;;;7.40;;
22525;SDS011;11429;50.842;4.386;2023-04-30T10:51:46;7.93;;;6.50;;
22525;SDS011;11429;50.842;4.386;2023-04-30T10:54:29;8.15;;;6.60;;
22525;SDS011;11429;50.842;4.386;2023-04-30T10:57:15;9.05;;;7.70;;
22525;SDS011;11429;50.842;4.386;2023-04-30T10:59:42;8.43;;;7.35;;
22525;SDS011;11429;50.842;4.386;2023-04-30T11:02:15;9.20;;;6.70;;
22525;SDS011;11429;50.842;4.386;2023-04-30T11:12:48;7.22;;;5.53;;
22525;SDS011;11429;50.842;4.386;2023-04-30T11:15:38;5.80;;;5.20;;
22525;SDS011;11429;50.842;4.386;2023-04-30T11:18:06;7.03;;;5.80;;
22525;SDS011;11429;50.842;4.386;2023-04-30T11:20:32;8.13;;;5.88;;
22525;SDS011;11429;50.842;4.386;2023-04-30T11:23:11;7.75;;;6.20;;
22525;SDS011;11429;50.842;4.386;2023-04-30T11:25:42;7.05;;;5.63;;
22525;SDS011;11429;50.842;4.386;2023-04-30T11:28:15;9.13;;;5.90;;
22525;SDS011;11429;50.842;4.386;2023-04-30T11:30:52;7.50;;;5.43;;
22525;SDS011;11429;50.842;4.386;2023-04-30T11:33:20;6.65;;;5.60;;
22525;SDS011;11429;50.842;4.386;2023-04-30T11:35:50;6.65;;;5.07;;
22525;SDS011;11429;50.842;4.386;2023-04-30T11:38:18;5.40;;;4.88;;
22525;SDS011;11429;50.842;4.386;2023-04-30T11:40:46;7.30;;;5.30;;
22525;SDS011;11429;50.842;4.386;2023-04-30T11:43:29;6.10;;;5.28;;
22525;SDS011;11429;50.842;4.386;2023-04-30T11:46:02;6.78;;;5.35;;
22525;SDS011;11429;50.842;4.386;2023-04-30T11:48:35;7.57;;;5.80;;
22525;SDS011;11429;50.842;4.386;2023-04-30T11:51:12;7.07;;;5.78;;
22525;SDS011;11429;50.842;4.386;2023-04-30T11:53:39;9.07;;;6.22;;
22525;SDS011;11429;50.842;4.386;2023-04-30T11:56:06;6.47;;;5.00;;
22525;SDS011;11429;50.842;4.386;2023-04-30T11:58:32;6.35;;;4.85;;
22525;SDS011;11429;50.842;4.386;2023-04-30T12:00:59;7.30;;;5.57;;
22525;SDS011;11429;50.842;4.386;2023-04-30T12:03:25;5.65;;;5.03;;
22525;SDS011;11429;50.842;4.386;2023-04-30T12:05:51;5.85;;;4.40;;
22525;SDS011;11429;50.842;4.386;2023-04-30T12:08:17;6.18;;;4.60;;
22525;SDS011;11429;50.842;4.386;2023-04-30T12:10:43;6.07;;;4.63;;
22525;SDS011;11429;50.842;4.386;2023-04-30T12:13:12;5.15;;;4.65;;
22525;SDS011;11429;50.842;4.386;2023-04-30T12:15:38;6.43;;;4.50;;
22525;SDS011;11429;50.842;4.386;2023-04-30T12:18:11;7.25;;;4.72;;
22525;SDS011;11429;50.842;4.386;2023-04-30T12:20:37;6.70;;;4.68;;
22525;SDS011;11429;50.842;4.386;2023-04-30T12:23:04;7.25;;;6.07;;
22525;SDS011;11429;50.842;4.386;2023-04-30T12:25:31;9.38;;;4.82;;
22525;SDS011;11429;50.842;4.386;2023-04-30T12:28:08;5.82;;;4.82;;
22525;SDS011;11429;50.842;4.386;2023-04-30T12:30:34;7.28;;;4.97;;
22525;SDS011;11429;50.842;4.386;2023-04-30T12:33:00;6.45;;;4.72;;
22525;SDS011;11429;50.842;4.386;2023-04-30T12:35:28;7.95;;;5.40;;
22525;SDS011;11429;50.842;4.386;2023-04-30T12:38:05;6.20;;;4.80;;
22525;SDS011;11429;50.842;4.386;2023-04-30T12:40:32;5.50;;;4.70;;
22525;SDS011;11429;50.842;4.386;2023-04-30T12:43:05;6.35;;;5.07;;
22525;SDS011;11429;50.842;4.386;2023-04-30T12:45:45;5.15;;;4.50;;
22525;SDS011;11429;50.842;4.386;2023-04-30T12:48:16;8.35;;;5.28;;
22525;SDS011;11429;50.842;4.386;2023-04-30T12:50:47;6.10;;;4.65;;
22525;SDS011;11429;50.842;4.386;2023-04-30T12:53:26;5.70;;;4.07;;
22525;SDS011;11429;50.842;4.386;2023-04-30T12:58:44;4.78;;;4.22;;
22525;SDS011;11429;50.842;4.386;2023-04-30T13:01:20;5.47;;;3.53;;
22525;SDS011;11429;50.842;4.386;2023-04-30T13:03:50;5.93;;;3.65;;
22525;SDS011;11429;50.842;4.386;2023-04-30T13:06:17;5.57;;;3.70;;
22525;SDS011;11429;50.842;4.386;2023-04-30T13:08:43;7.22;;;4.38;;
22525;SDS011;11429;50.842;4.386;2023-04-30T13:11:09;6.15;;;3.78;;
22525;SDS011;11429;50.842;4.386;2023-04-30T13:13:35;5.15;;;3.90;;
22525;SDS011;11429;50.842;4.386;2023-04-30T13:16:01;5.70;;;3.90;;
22525;SDS011;11429;50.842;4.386;2023-04-30T13:18:27;5.25;;;4.28;;
22525;SDS011;11429;50.842;4.386;2023-04-30T13:20:52;6.00;;;3.88;;
22525;SDS011;11429;50.842;4.386;2023-04-30T13:23:18;4.53;;;3.25;;
22525;SDS011;11429;50.842;4.386;2023-04-30T13:25:44;4.93;;;3.40;;
22525;SDS011;11429;50.842;4.386;2023-04-30T13:28:10;6.43;;;3.28;;
22525;SDS011;11429;50.842;4.386;2023-04-30T13:30:36;3.75;;;3.38;;
22525;SDS011;11429;50.842;4.386;2023-04-30T13:33:02;5.13;;;3.85;;
22525;SDS011;11429;50.842;4.386;2023-04-30T13:35:28;5.30;;;3.42;;
22525;SDS011;11429;50.842;4.386;2023-04-30T13:37:54;4.28;;;3.30;;
22525;SDS011;11429;50.842;4.386;2023-04-30T13:40:20;5.65;;;3.47;;
22525;SDS011;11429;50.842;4.386;2023-04-30T13:42:46;5.03;;;3.40;;
22525;SDS011;11429;50.842;4.386;2023-04-30T13:45:13;5.80;;;3.78;;
22525;SDS011;11429;50.842;4.386;2023-04-30T13:47:39;5.00;;;3.70;;
22525;SDS011;11429;50.842;4.386;2023-04-30T13:50:05;5.72;;;3.58;;
22525;SDS011;11429;50.842;4.386;2023-04-30T13:52:32;4.80;;;3.38;;
22525;SDS011;11429;50.842;4.386;2023-04-30T13:54:58;5.32;;;3.60;;
22525;SDS011;11429;50.842;4.386;2023-04-30T13:57:25;5.07;;;3.50;;
22525;SDS011;11429;50.842;4.386;2023-04-30T13:59:52;5.93;;;4.43;;
22525;SDS011;11429;50.842;4.386;2023-04-30T14:02:18;4.72;;;3.78;;
22525;SDS011;11429;50.842;4.386;2023-04-30T14:04:44;3.88;;;3.42;;
22525;SDS011;11429;50.842;4.386;2023-04-30T14:07:10;4.60;;;3.25;;
22525;SDS011;11429;50.842;4.386;2023-04-30T14:09:36;5.32;;;3.30;;
22525;SDS011;11429;50.842;4.386;2023-04-30T14:12:02;4.57;;;3.60;;
22525;SDS011;11429;50.842;4.386;2023-04-30T14:14:28;6.45;;;2.80;;
22525;SDS011;11429;50.842;4.386;2023-04-30T14:16:54;3.53;;;2.92;;
22525;SDS011;11429;50.842;4.386;2023-04-30T14:19:20;5.97;;;3.33;;
22525;SDS011;11429;50.842;4.386;2023-04-30T14:21:47;4.93;;;2.95;;
22525;SDS011;11429;50.842;4.386;2023-04-30T14:24:13;4.45;;;2.90;;
22525;SDS011;11429;50.842;4.386;2023-04-30T14:26:40;4.45;;;2.70;;
22525;SDS011;11429;50.842;4.386;2023-04-30T14:29:07;4.53;;;3.33;;
22525;SDS011;11429;50.842;4.386;2023-04-30T14:31:33;3.83;;;3.30;;
22525;SDS011;11429;50.842;4.386;2023-04-30T14:33:58;3.90;;;3.00;;
22525;SDS011;11429;50.842;4.386;2023-04-30T14:36:24;4.10;;;2.95;;
22525;SDS011;11429;50.842;4.386;2023-04-30T14:38:51;4.70;;;2.80;;
22525;SDS011;11429;50.842;4.386;2023-04-30T14:41:17;3.90;;;2.78;;
22525;SDS011;11429;50.842;4.386;2023-04-30T14:43:43;3.70;;;3.15;;
22525;SDS011;11429;50.842;4.386;2023-04-30T14:46:09;4.82;;;2.88;;
22525;SDS011;11429;50.842;4.386;2023-04-30T14:48:35;4.65;;;3.10;;
22525;SDS011;11429;50.842;4.386;2023-04-30T14:51:01;4.65;;;2.80;;
22525;SDS011;11429;50.842;4.386;2023-04-30T14:53:27;3.58;;;2.60;;
22525;SDS011;11429;50.842;4.386;2023-04-30T14:55:53;5.30;;;2.85;;
22525;SDS011;11429;50.842;4.386;2023-04-30T14:58:19;3.88;;;3.35;;
22525;SDS011;11429;50.842;4.386;2023-04-30T15:00:45;3.90;;;2.90;;
22525;SDS011;11429;50.842;4.386;2023-04-30T15:03:13;4.55;;;2.90;;
22525;SDS011;11429;50.842;4.386;2023-04-30T15:05:40;3.90;;;3.22;;